<?xml version="1.0" encoding="UTF-8" standalone="no" ?>
<gpx xmlns="http://www.topografix.com/GPX/1/1" xmlns:xsi="http://www.w3.org/2001/XMLSchema-instance" xsi:schemaLocation="http://www.topografix.com/GPX/1/1 http://www.topografix.com/GPX/1/1/gpx.xsd" version="1.1" creator="VisuGPX - https://www.visugpx.com">
  <metadata>
    <name>Cap d\'Aïl    SP 1   SP 3</name>
    <desc><![CDATA[Sortie à faire samedi
]]></desc>
  </metadata>
  <trk>
    <name><![CDATA[Le Pin]]></name>
    <trkseg>
      <trkpt lat="43.53416" lon="3.00497">
        <ele>225.18252563477</ele>
        <time>2011-12-31T08:17:06Z</time>
      </trkpt>
      <trkpt lat="43.53355" lon="3.00464">
        <ele>216.59259033203</ele>
        <time>2011-12-31T08:17:49Z</time>
      </trkpt>
      <trkpt lat="43.53334" lon="3.00428">
        <ele>215.99978637695</ele>
        <time>2011-12-31T08:18:11Z</time>
      </trkpt>
      <trkpt lat="43.53394" lon="3.00448">
        <ele>225.59680175781</ele>
        <time>2011-12-31T08:19:04Z</time>
      </trkpt>
      <trkpt lat="43.53393" lon="3.00414">
        <ele>228.04727172852</ele>
        <time>2011-12-31T08:19:20Z</time>
      </trkpt>
      <trkpt lat="43.5353" lon="3.00301">
        <ele>246.30088806152</ele>
        <time>2011-12-31T08:20:43Z</time>
      </trkpt>
      <trkpt lat="43.53595" lon="3.00222">
        <ele>254.81033325195</ele>
        <time>2011-12-31T08:21:24Z</time>
      </trkpt>
      <trkpt lat="43.53632" lon="3.00217">
        <ele>262.85601806641</ele>
        <time>2011-12-31T08:21:46Z</time>
      </trkpt>
      <trkpt lat="43.53601" lon="3.00245">
        <ele>256.81817626953</ele>
        <time>2011-12-31T08:22:04Z</time>
      </trkpt>
      <trkpt lat="43.53574" lon="3.00299">
        <ele>260.43322753906</ele>
        <time>2011-12-31T08:22:26Z</time>
      </trkpt>
      <trkpt lat="43.53572" lon="3.00303">
        <ele>260.70367431641</ele>
        <time>2011-12-31T08:22:28Z</time>
      </trkpt>
      <trkpt lat="43.53561" lon="3.00327">
        <ele>261.77578735352</ele>
        <time>2011-12-31T08:22:39Z</time>
      </trkpt>
      <trkpt lat="43.53547" lon="3.0041">
        <ele>264.87048339844</ele>
        <time>2011-12-31T08:23:11Z</time>
      </trkpt>
      <trkpt lat="43.5355" lon="3.00417">
        <ele>266.49392700195</ele>
        <time>2011-12-31T08:23:15Z</time>
      </trkpt>
      <trkpt lat="43.53732" lon="3.00529">
        <ele>296.99829101562</ele>
        <time>2011-12-31T08:25:01Z</time>
      </trkpt>
      <trkpt lat="43.53816" lon="3.00626">
        <ele>304.4801940918</ele>
        <time>2011-12-31T08:25:59Z</time>
      </trkpt>
      <trkpt lat="43.53868" lon="3.00645">
        <ele>314.76165771484</ele>
        <time>2011-12-31T08:26:26Z</time>
      </trkpt>
      <trkpt lat="43.53865" lon="3.00634">
        <ele>316.48767089844</ele>
        <time>2011-12-31T08:26:31Z</time>
      </trkpt>
      <trkpt lat="43.5383" lon="3.00606">
        <ele>312.6823425293</ele>
        <time>2011-12-31T08:26:53Z</time>
      </trkpt>
      <trkpt lat="43.53827" lon="3.00599">
        <ele>313.01113891602</ele>
        <time>2011-12-31T08:26:56Z</time>
      </trkpt>
      <trkpt lat="43.53809" lon="3.00547">
        <ele>317.35104370117</ele>
        <time>2011-12-31T08:27:16Z</time>
      </trkpt>
      <trkpt lat="43.53797" lon="3.00505">
        <ele>322.19439697266</ele>
        <time>2011-12-31T08:27:34Z</time>
      </trkpt>
      <trkpt lat="43.53881" lon="3.00582">
        <ele>332.57080078125</ele>
        <time>2011-12-31T08:28:31Z</time>
      </trkpt>
      <trkpt lat="43.53906" lon="3.00594">
        <ele>336.98135375977</ele>
        <time>2011-12-31T08:28:41Z</time>
      </trkpt>
      <trkpt lat="43.53961" lon="3.00612">
        <ele>349.47698974609</ele>
        <time>2011-12-31T08:29:06Z</time>
      </trkpt>
      <trkpt lat="43.5396" lon="3.00625">
        <ele>348.04498291016</ele>
        <time>2011-12-31T08:29:11Z</time>
      </trkpt>
      <trkpt lat="43.53931" lon="3.0067">
        <ele>331.69595336914</ele>
        <time>2011-12-31T08:29:29Z</time>
      </trkpt>
      <trkpt lat="43.53942" lon="3.00736">
        <ele>338.74890136719</ele>
        <time>2011-12-31T08:29:50Z</time>
      </trkpt>
      <trkpt lat="43.53952" lon="3.00752">
        <ele>343.48397827148</ele>
        <time>2011-12-31T08:29:57Z</time>
      </trkpt>
      <trkpt lat="43.53957" lon="3.0076">
        <ele>345.69882202148</ele>
        <time>2011-12-31T08:30:01Z</time>
      </trkpt>
      <trkpt lat="43.53989" lon="3.00792">
        <ele>354.87905883789</ele>
        <time>2011-12-31T08:30:21Z</time>
      </trkpt>
      <trkpt lat="43.53996" lon="3.00796">
        <ele>356.5168762207</ele>
        <time>2011-12-31T08:30:25Z</time>
      </trkpt>
      <trkpt lat="43.54026" lon="3.00825">
        <ele>364.08874511719</ele>
        <time>2011-12-31T08:30:43Z</time>
      </trkpt>
      <trkpt lat="43.54027" lon="3.00827">
        <ele>364.24057006836</ele>
        <time>2011-12-31T08:30:44Z</time>
      </trkpt>
      <trkpt lat="43.54024" lon="3.00844">
        <ele>364.74563598633</ele>
        <time>2011-12-31T08:30:51Z</time>
      </trkpt>
      <trkpt lat="43.53768" lon="3.00911">
        <ele>367.15063476562</ele>
        <time>2011-12-31T08:32:54Z</time>
      </trkpt>
      <trkpt lat="43.53717" lon="3.00947">
        <ele>372.00750732422</ele>
        <time>2011-12-31T08:33:21Z</time>
      </trkpt>
      <trkpt lat="43.537" lon="3.00965">
        <ele>372.82629394531</ele>
        <time>2011-12-31T08:33:32Z</time>
      </trkpt>
      <trkpt lat="43.5365" lon="3.01176">
        <ele>398.72232055664</ele>
        <time>2011-12-31T08:34:56Z</time>
      </trkpt>
      <trkpt lat="43.536" lon="3.01242">
        <ele>398.64129638672</ele>
        <time>2011-12-31T08:35:33Z</time>
      </trkpt>
      <trkpt lat="43.53617" lon="3.01391">
        <ele>411.13739013672</ele>
        <time>2011-12-31T08:36:31Z</time>
      </trkpt>
      <trkpt lat="43.53618" lon="3.01428">
        <ele>411.02670288086</ele>
        <time>2011-12-31T08:36:46Z</time>
      </trkpt>
      <trkpt lat="43.53625" lon="3.01479">
        <ele>411.16925048828</ele>
        <time>2011-12-31T08:37:06Z</time>
      </trkpt>
      <trkpt lat="43.5365" lon="3.01501">
        <ele>418.6354675293</ele>
        <time>2011-12-31T08:37:22Z</time>
      </trkpt>
      <trkpt lat="43.53653" lon="3.01502">
        <ele>419.41323852539</ele>
        <time>2011-12-31T08:37:24Z</time>
      </trkpt>
      <trkpt lat="43.53849" lon="3.01525">
        <ele>455.8215637207</ele>
        <time>2011-12-31T08:39:14Z</time>
      </trkpt>
      <trkpt lat="43.5386" lon="3.01701">
        <ele>448.09234619141</ele>
        <time>2011-12-31T08:40:31Z</time>
      </trkpt>
      <trkpt lat="43.53879" lon="3.0175">
        <ele>449.77471923828</ele>
        <time>2011-12-31T08:40:53Z</time>
      </trkpt>
      <trkpt lat="43.53904" lon="3.01758">
        <ele>459.38287353516</ele>
        <time>2011-12-31T08:41:08Z</time>
      </trkpt>
      <trkpt lat="43.53941" lon="3.01767">
        <ele>474.46170043945</ele>
        <time>2011-12-31T08:41:31Z</time>
      </trkpt>
      <trkpt lat="43.53948" lon="3.01782">
        <ele>476.18801879883</ele>
        <time>2011-12-31T08:41:39Z</time>
      </trkpt>
      <trkpt lat="43.53949" lon="3.01851">
        <ele>472.8857421875</ele>
        <time>2011-12-31T08:42:09Z</time>
      </trkpt>
      <trkpt lat="43.53937" lon="3.0191">
        <ele>474.38122558594</ele>
        <time>2011-12-31T08:42:33Z</time>
      </trkpt>
      <trkpt lat="43.539" lon="3.02046">
        <ele>478.72244262695</ele>
        <time>2011-12-31T08:43:35Z</time>
      </trkpt>
      <trkpt lat="43.53904" lon="3.02083">
        <ele>483.376953125</ele>
        <time>2011-12-31T08:43:51Z</time>
      </trkpt>
      <trkpt lat="43.53927" lon="3.02097">
        <ele>485.86672973633</ele>
        <time>2011-12-31T08:44:10Z</time>
      </trkpt>
      <trkpt lat="43.53952" lon="3.02087">
        <ele>492.40594482422</ele>
        <time>2011-12-31T08:44:27Z</time>
      </trkpt>
      <trkpt lat="43.53968" lon="3.02086">
        <ele>495.45364379883</ele>
        <time>2011-12-31T08:44:38Z</time>
      </trkpt>
      <trkpt lat="43.54" lon="3.02087">
        <ele>500.90994262695</ele>
        <time>2011-12-31T08:45:02Z</time>
      </trkpt>
      <trkpt lat="43.54013" lon="3.02088">
        <ele>500.38912963867</ele>
        <time>2011-12-31T08:45:11Z</time>
      </trkpt>
      <trkpt lat="43.54044" lon="3.02084">
        <ele>501.26724243164</ele>
        <time>2011-12-31T08:45:32Z</time>
      </trkpt>
      <trkpt lat="43.54113" lon="3.02043">
        <ele>509.9475402832</ele>
        <time>2011-12-31T08:46:21Z</time>
      </trkpt>
      <trkpt lat="43.54132" lon="3.02011">
        <ele>514.58776855469</ele>
        <time>2011-12-31T08:46:43Z</time>
      </trkpt>
      <trkpt lat="43.5415" lon="3.0199">
        <ele>515.11663818359</ele>
        <time>2011-12-31T08:46:59Z</time>
      </trkpt>
      <trkpt lat="43.54163" lon="3.01963">
        <ele>517.70611572266</ele>
        <time>2011-12-31T08:47:14Z</time>
      </trkpt>
      <trkpt lat="43.54189" lon="3.01875">
        <ele>530.30377197266</ele>
        <time>2011-12-31T08:47:53Z</time>
      </trkpt>
      <trkpt lat="43.54211" lon="3.01813">
        <ele>537.47778320312</ele>
        <time>2011-12-31T08:48:22Z</time>
      </trkpt>
      <trkpt lat="43.54253" lon="3.01706">
        <ele>546.01446533203</ele>
        <time>2011-12-31T08:49:07Z</time>
      </trkpt>
      <trkpt lat="43.54279" lon="3.01675">
        <ele>552.59234619141</ele>
        <time>2011-12-31T08:49:25Z</time>
      </trkpt>
      <trkpt lat="43.54286" lon="3.01682">
        <ele>552.26086425781</ele>
        <time>2011-12-31T08:49:29Z</time>
      </trkpt>
      <trkpt lat="43.54288" lon="3.01689">
        <ele>551.52197265625</ele>
        <time>2011-12-31T08:49:31Z</time>
      </trkpt>
      <trkpt lat="43.54297" lon="3.01728">
        <ele>546.53289794922</ele>
        <time>2011-12-31T08:49:41Z</time>
      </trkpt>
      <trkpt lat="43.54316" lon="3.01772">
        <ele>541.90985107422</ele>
        <time>2011-12-31T08:49:52Z</time>
      </trkpt>
      <trkpt lat="43.5434" lon="3.01785">
        <ele>542.14208984375</ele>
        <time>2011-12-31T08:49:59Z</time>
      </trkpt>
      <trkpt lat="43.54349" lon="3.01782">
        <ele>543.14813232422</ele>
        <time>2011-12-31T08:50:01Z</time>
      </trkpt>
      <trkpt lat="43.54363" lon="3.01777">
        <ele>544.81036376953</ele>
        <time>2011-12-31T08:50:04Z</time>
      </trkpt>
      <trkpt lat="43.54416" lon="3.0175">
        <ele>552.98419189453</ele>
        <time>2011-12-31T08:50:17Z</time>
      </trkpt>
      <trkpt lat="43.54437" lon="3.01832">
        <ele>543.61871337891</ele>
        <time>2011-12-31T08:50:31Z</time>
      </trkpt>
      <trkpt lat="43.54481" lon="3.01863">
        <ele>547.93005371094</ele>
        <time>2011-12-31T08:50:43Z</time>
      </trkpt>
      <trkpt lat="43.54524" lon="3.01862">
        <ele>556.34399414062</ele>
        <time>2011-12-31T08:50:53Z</time>
      </trkpt>
      <trkpt lat="43.5453" lon="3.01874">
        <ele>556.25482177734</ele>
        <time>2011-12-31T08:50:56Z</time>
      </trkpt>
      <trkpt lat="43.54529" lon="3.01888">
        <ele>554.642578125</ele>
        <time>2011-12-31T08:50:59Z</time>
      </trkpt>
      <trkpt lat="43.54527" lon="3.01896">
        <ele>553.51068115234</ele>
        <time>2011-12-31T08:51:01Z</time>
      </trkpt>
      <trkpt lat="43.54519" lon="3.01949">
        <ele>551.50665283203</ele>
        <time>2011-12-31T08:51:16Z</time>
      </trkpt>
      <trkpt lat="43.54517" lon="3.01958">
        <ele>551.65777587891</ele>
        <time>2011-12-31T08:51:19Z</time>
      </trkpt>
      <trkpt lat="43.54499" lon="3.01998">
        <ele>549.50732421875</ele>
        <time>2011-12-31T08:51:34Z</time>
      </trkpt>
      <trkpt lat="43.54493" lon="3.02013">
        <ele>549.55419921875</ele>
        <time>2011-12-31T08:51:41Z</time>
      </trkpt>
      <trkpt lat="43.54499" lon="3.02026">
        <ele>552.31848144531</ele>
        <time>2011-12-31T08:51:49Z</time>
      </trkpt>
      <trkpt lat="43.54504" lon="3.02023">
        <ele>553.22430419922</ele>
        <time>2011-12-31T08:51:51Z</time>
      </trkpt>
      <trkpt lat="43.54573" lon="3.01821">
        <ele>564.38580322266</ele>
        <time>2011-12-31T08:53:01Z</time>
      </trkpt>
      <trkpt lat="43.5456" lon="3.01756">
        <ele>566.79327392578</ele>
        <time>2011-12-31T09:04:28Z</time>
      </trkpt>
      <trkpt lat="43.54551" lon="3.01743">
        <ele>567.94458007812</ele>
        <time>2011-12-31T09:04:37Z</time>
      </trkpt>
      <trkpt lat="43.54539" lon="3.0174">
        <ele>568.86639404297</ele>
        <time>2011-12-31T09:04:43Z</time>
      </trkpt>
      <trkpt lat="43.54533" lon="3.01736">
        <ele>569.59460449219</ele>
        <time>2011-12-31T09:04:46Z</time>
      </trkpt>
      <trkpt lat="43.54527" lon="3.0173">
        <ele>570.51257324219</ele>
        <time>2011-12-31T09:04:49Z</time>
      </trkpt>
      <trkpt lat="43.54522" lon="3.01723">
        <ele>571.65435791016</ele>
        <time>2011-12-31T09:04:52Z</time>
      </trkpt>
      <trkpt lat="43.54501" lon="3.01711">
        <ele>575.04705810547</ele>
        <time>2011-12-31T09:05:02Z</time>
      </trkpt>
      <trkpt lat="43.54469" lon="3.01666">
        <ele>577.2890625</ele>
        <time>2011-12-31T09:05:24Z</time>
      </trkpt>
      <trkpt lat="43.54429" lon="3.01586">
        <ele>581.1484375</ele>
        <time>2011-12-31T09:05:55Z</time>
      </trkpt>
      <trkpt lat="43.54424" lon="3.01449">
        <ele>584.79431152344</ele>
        <time>2011-12-31T09:06:24Z</time>
      </trkpt>
      <trkpt lat="43.54442" lon="3.01352">
        <ele>591.53350830078</ele>
        <time>2011-12-31T09:06:44Z</time>
      </trkpt>
      <trkpt lat="43.54479" lon="3.01187">
        <ele>590.29675292969</ele>
        <time>2011-12-31T09:07:16Z</time>
      </trkpt>
      <trkpt lat="43.54527" lon="3.0116">
        <ele>589.32611083984</ele>
        <time>2011-12-31T09:07:30Z</time>
      </trkpt>
      <trkpt lat="43.54549" lon="3.01162">
        <ele>586.08880615234</ele>
        <time>2011-12-31T09:07:35Z</time>
      </trkpt>
      <trkpt lat="43.54616" lon="3.01174">
        <ele>572.49456787109</ele>
        <time>2011-12-31T09:07:55Z</time>
      </trkpt>
      <trkpt lat="43.54625" lon="3.00902">
        <ele>624.76739501953</ele>
        <time>2011-12-31T09:12:57Z</time>
      </trkpt>
      <trkpt lat="43.54652" lon="3.00836">
        <ele>633.79791259766</ele>
        <time>2011-12-31T09:14:24Z</time>
      </trkpt>
      <trkpt lat="43.54656" lon="3.00766">
        <ele>634.40521240234</ele>
        <time>2011-12-31T09:18:47Z</time>
      </trkpt>
      <trkpt lat="43.54732" lon="3.00756">
        <ele>639.04034423828</ele>
        <time>2011-12-31T09:19:25Z</time>
      </trkpt>
      <trkpt lat="43.5474" lon="3.00762">
        <ele>639.1240234375</ele>
        <time>2011-12-31T09:19:32Z</time>
      </trkpt>
      <trkpt lat="43.54764" lon="3.008">
        <ele>635.99072265625</ele>
        <time>2011-12-31T09:19:45Z</time>
      </trkpt>
      <trkpt lat="43.54796" lon="3.00826">
        <ele>634.44110107422</ele>
        <time>2011-12-31T09:20:03Z</time>
      </trkpt>
      <trkpt lat="43.54834" lon="3.00825">
        <ele>634.92102050781</ele>
        <time>2011-12-31T09:20:21Z</time>
      </trkpt>
      <trkpt lat="43.54878" lon="3.00794">
        <ele>623.05249023438</ele>
        <time>2011-12-31T09:20:40Z</time>
      </trkpt>
      <trkpt lat="43.54883" lon="3.00755">
        <ele>623.42559814453</ele>
        <time>2011-12-31T09:20:55Z</time>
      </trkpt>
      <trkpt lat="43.54891" lon="3.00746">
        <ele>621.15710449219</ele>
        <time>2011-12-31T09:20:59Z</time>
      </trkpt>
      <trkpt lat="43.54893" lon="3.00733">
        <ele>618.90643310547</ele>
        <time>2011-12-31T09:21:03Z</time>
      </trkpt>
      <trkpt lat="43.54891" lon="3.00731">
        <ele>618.92913818359</ele>
        <time>2011-12-31T09:21:05Z</time>
      </trkpt>
      <trkpt lat="43.54883" lon="3.00698">
        <ele>615.20404052734</ele>
        <time>2011-12-31T09:21:19Z</time>
      </trkpt>
      <trkpt lat="43.54918" lon="3.00685">
        <ele>608.67016601562</ele>
        <time>2011-12-31T09:21:39Z</time>
      </trkpt>
      <trkpt lat="43.54961" lon="3.00678">
        <ele>594.92218017578</ele>
        <time>2011-12-31T09:22:04Z</time>
      </trkpt>
      <trkpt lat="43.54976" lon="3.00688">
        <ele>590.71350097656</ele>
        <time>2011-12-31T09:22:11Z</time>
      </trkpt>
      <trkpt lat="43.54984" lon="3.00698">
        <ele>587.75042724609</ele>
        <time>2011-12-31T09:22:14Z</time>
      </trkpt>
      <trkpt lat="43.55023" lon="3.00727">
        <ele>570.74169921875</ele>
        <time>2011-12-31T09:22:26Z</time>
      </trkpt>
      <trkpt lat="43.55053" lon="3.00766">
        <ele>555.07678222656</ele>
        <time>2011-12-31T09:22:40Z</time>
      </trkpt>
      <trkpt lat="43.55038" lon="3.00721">
        <ele>564.33868408203</ele>
        <time>2011-12-31T09:23:06Z</time>
      </trkpt>
      <trkpt lat="43.55047" lon="3.00669">
        <ele>562.37066650391</ele>
        <time>2011-12-31T09:23:31Z</time>
      </trkpt>
      <trkpt lat="43.55049" lon="3.00653">
        <ele>561.40435791016</ele>
        <time>2011-12-31T09:23:34Z</time>
      </trkpt>
      <trkpt lat="43.55052" lon="3.00641">
        <ele>559.55114746094</ele>
        <time>2011-12-31T09:23:37Z</time>
      </trkpt>
      <trkpt lat="43.55042" lon="3.00598">
        <ele>562.84967041016</ele>
        <time>2011-12-31T09:23:49Z</time>
      </trkpt>
      <trkpt lat="43.55038" lon="3.00564">
        <ele>561.35662841797</ele>
        <time>2011-12-31T09:24:01Z</time>
      </trkpt>
      <trkpt lat="43.55022" lon="3.00534">
        <ele>563.06103515625</ele>
        <time>2011-12-31T09:24:25Z</time>
      </trkpt>
      <trkpt lat="43.55017" lon="3.00473">
        <ele>556.69287109375</ele>
        <time>2011-12-31T09:24:45Z</time>
      </trkpt>
      <trkpt lat="43.55051" lon="3.00449">
        <ele>546.09185791016</ele>
        <time>2011-12-31T09:24:59Z</time>
      </trkpt>
      <trkpt lat="43.55062" lon="3.00441">
        <ele>543.63568115234</ele>
        <time>2011-12-31T09:25:02Z</time>
      </trkpt>
      <trkpt lat="43.55087" lon="3.00438">
        <ele>537.94964599609</ele>
        <time>2011-12-31T09:25:11Z</time>
      </trkpt>
      <trkpt lat="43.55107" lon="3.00443">
        <ele>527.95080566406</ele>
        <time>2011-12-31T09:25:24Z</time>
      </trkpt>
      <trkpt lat="43.55153" lon="3.00429">
        <ele>506.81274414062</ele>
        <time>2011-12-31T09:25:56Z</time>
      </trkpt>
      <trkpt lat="43.55165" lon="3.00472">
        <ele>500.52667236328</ele>
        <time>2011-12-31T09:26:15Z</time>
      </trkpt>
      <trkpt lat="43.55159" lon="3.00489">
        <ele>503.29656982422</ele>
        <time>2011-12-31T09:26:21Z</time>
      </trkpt>
      <trkpt lat="43.5518" lon="3.00507">
        <ele>494.69647216797</ele>
        <time>2011-12-31T09:26:35Z</time>
      </trkpt>
      <trkpt lat="43.55205" lon="3.00521">
        <ele>485.18392944336</ele>
        <time>2011-12-31T09:26:44Z</time>
      </trkpt>
      <trkpt lat="43.55237" lon="3.00583">
        <ele>475.20666503906</ele>
        <time>2011-12-31T09:27:45Z</time>
      </trkpt>
      <trkpt lat="43.55199" lon="3.00772">
        <ele>485.46560668945</ele>
        <time>2011-12-31T09:28:23Z</time>
      </trkpt>
      <trkpt lat="43.55204" lon="3.00792">
        <ele>482.91168212891</ele>
        <time>2011-12-31T09:28:26Z</time>
      </trkpt>
      <trkpt lat="43.5522" lon="3.00886">
        <ele>476.1770324707</ele>
        <time>2011-12-31T09:28:42Z</time>
      </trkpt>
      <trkpt lat="43.55208" lon="3.00968">
        <ele>478.86849975586</ele>
        <time>2011-12-31T09:28:59Z</time>
      </trkpt>
      <trkpt lat="43.55201" lon="3.00995">
        <ele>478.74285888672</ele>
        <time>2011-12-31T09:29:05Z</time>
      </trkpt>
      <trkpt lat="43.55156" lon="3.01086">
        <ele>471.78918457031</ele>
        <time>2011-12-31T09:29:30Z</time>
      </trkpt>
      <trkpt lat="43.55106" lon="3.01138">
        <ele>477.50030517578</ele>
        <time>2011-12-31T09:29:50Z</time>
      </trkpt>
      <trkpt lat="43.55091" lon="3.01158">
        <ele>476.08050537109</ele>
        <time>2011-12-31T09:29:56Z</time>
      </trkpt>
      <trkpt lat="43.55056" lon="3.01213">
        <ele>479.30926513672</ele>
        <time>2011-12-31T09:30:12Z</time>
      </trkpt>
      <trkpt lat="43.55023" lon="3.01287">
        <ele>480.44906616211</ele>
        <time>2011-12-31T09:30:34Z</time>
      </trkpt>
      <trkpt lat="43.54985" lon="3.01427">
        <ele>479.82028198242</ele>
        <time>2011-12-31T09:31:16Z</time>
      </trkpt>
      <trkpt lat="43.5498" lon="3.01437">
        <ele>480.23886108398</ele>
        <time>2011-12-31T09:31:22Z</time>
      </trkpt>
      <trkpt lat="43.5502" lon="3.01167">
        <ele>496.22216796875</ele>
        <time>2011-12-31T09:32:57Z</time>
      </trkpt>
      <trkpt lat="43.54925" lon="3.01215">
        <ele>515.11639404297</ele>
        <time>2011-12-31T09:34:27Z</time>
      </trkpt>
      <trkpt lat="43.54907" lon="3.01225">
        <ele>516.58020019531</ele>
        <time>2011-12-31T09:34:48Z</time>
      </trkpt>
      <trkpt lat="43.54903" lon="3.01225">
        <ele>516.86743164062</ele>
        <time>2011-12-31T09:34:50Z</time>
      </trkpt>
      <trkpt lat="43.54898" lon="3.01227">
        <ele>517.21472167969</ele>
        <time>2011-12-31T09:34:53Z</time>
      </trkpt>
      <trkpt lat="43.54809" lon="3.01199">
        <ele>532.08648681641</ele>
        <time>2011-12-31T09:36:08Z</time>
      </trkpt>
      <trkpt lat="43.54809" lon="3.01179">
        <ele>535.8076171875</ele>
        <time>2011-12-31T09:36:19Z</time>
      </trkpt>
      <trkpt lat="43.54829" lon="3.01161">
        <ele>538.51013183594</ele>
        <time>2011-12-31T09:36:40Z</time>
      </trkpt>
      <trkpt lat="43.5486" lon="3.01128">
        <ele>542.33367919922</ele>
        <time>2011-12-31T09:37:11Z</time>
      </trkpt>
      <trkpt lat="43.54902" lon="3.01055">
        <ele>552.94586181641</ele>
        <time>2011-12-31T09:38:18Z</time>
      </trkpt>
      <trkpt lat="43.54881" lon="3.01064">
        <ele>554.08093261719</ele>
        <time>2011-12-31T09:38:33Z</time>
      </trkpt>
      <trkpt lat="43.54832" lon="3.01066">
        <ele>560.24066162109</ele>
        <time>2011-12-31T09:39:01Z</time>
      </trkpt>
      <trkpt lat="43.54773" lon="3.0102">
        <ele>572.61352539062</ele>
        <time>2011-12-31T09:39:39Z</time>
      </trkpt>
      <trkpt lat="43.54762" lon="3.01013">
        <ele>574.27545166016</ele>
        <time>2011-12-31T09:39:46Z</time>
      </trkpt>
      <trkpt lat="43.54727" lon="3.00988">
        <ele>584.72149658203</ele>
        <time>2011-12-31T09:40:07Z</time>
      </trkpt>
      <trkpt lat="43.54719" lon="3.0099">
        <ele>585.37982177734</ele>
        <time>2011-12-31T09:40:11Z</time>
      </trkpt>
      <trkpt lat="43.54715" lon="3.00995">
        <ele>584.89611816406</ele>
        <time>2011-12-31T09:40:13Z</time>
      </trkpt>
      <trkpt lat="43.54681" lon="3.01025">
        <ele>584.81158447266</ele>
        <time>2011-12-31T09:40:30Z</time>
      </trkpt>
      <trkpt lat="43.54679" lon="3.01059">
        <ele>579.1875</ele>
        <time>2011-12-31T09:40:42Z</time>
      </trkpt>
      <trkpt lat="43.54663" lon="3.01088">
        <ele>578.31396484375</ele>
        <time>2011-12-31T09:40:56Z</time>
      </trkpt>
      <trkpt lat="43.54622" lon="3.01167">
        <ele>573.07293701172</ele>
        <time>2011-12-31T09:41:25Z</time>
      </trkpt>
      <trkpt lat="43.54629" lon="3.01119">
        <ele>581.49847412109</ele>
        <time>2011-12-31T09:47:20Z</time>
      </trkpt>
      <trkpt lat="43.5462" lon="3.01082">
        <ele>591.61499023438</ele>
        <time>2011-12-31T09:47:42Z</time>
      </trkpt>
      <trkpt lat="43.54622" lon="3.00909">
        <ele>623.97290039062</ele>
        <time>2011-12-31T09:51:06Z</time>
      </trkpt>
      <trkpt lat="43.54652" lon="3.00833">
        <ele>634.40582275391</ele>
        <time>2011-12-31T09:52:42Z</time>
      </trkpt>
      <trkpt lat="43.5463" lon="3.0075">
        <ele>635.72637939453</ele>
        <time>2011-12-31T09:59:22Z</time>
      </trkpt>
      <trkpt lat="43.5462" lon="3.00723">
        <ele>630.17169189453</ele>
        <time>2011-12-31T09:59:37Z</time>
      </trkpt>
      <trkpt lat="43.54617" lon="3.00715">
        <ele>628.51470947266</ele>
        <time>2011-12-31T09:59:39Z</time>
      </trkpt>
      <trkpt lat="43.5461" lon="3.00694">
        <ele>624.64807128906</ele>
        <time>2011-12-31T09:59:43Z</time>
      </trkpt>
      <trkpt lat="43.54604" lon="3.0068">
        <ele>622.28125</ele>
        <time>2011-12-31T09:59:46Z</time>
      </trkpt>
      <trkpt lat="43.54581" lon="3.00617">
        <ele>609.11383056641</ele>
        <time>2011-12-31T10:00:01Z</time>
      </trkpt>
      <trkpt lat="43.54547" lon="3.00515">
        <ele>604.38067626953</ele>
        <time>2011-12-31T10:00:45Z</time>
      </trkpt>
      <trkpt lat="43.54534" lon="3.00432">
        <ele>597.1142578125</ele>
        <time>2011-12-31T10:01:05Z</time>
      </trkpt>
      <trkpt lat="43.54531" lon="3.00367">
        <ele>585.48419189453</ele>
        <time>2011-12-31T10:01:29Z</time>
      </trkpt>
      <trkpt lat="43.54523" lon="3.00363">
        <ele>587.73986816406</ele>
        <time>2011-12-31T10:01:34Z</time>
      </trkpt>
      <trkpt lat="43.54506" lon="3.00338">
        <ele>587.49603271484</ele>
        <time>2011-12-31T10:01:51Z</time>
      </trkpt>
      <trkpt lat="43.5449" lon="3.00316">
        <ele>584.46533203125</ele>
        <time>2011-12-31T10:01:58Z</time>
      </trkpt>
      <trkpt lat="43.54456" lon="3.0025">
        <ele>572.59594726562</ele>
        <time>2011-12-31T10:02:26Z</time>
      </trkpt>
      <trkpt lat="43.54435" lon="3.0023">
        <ele>572.20672607422</ele>
        <time>2011-12-31T10:02:36Z</time>
      </trkpt>
      <trkpt lat="43.5439" lon="3.00128">
        <ele>549.94329833984</ele>
        <time>2011-12-31T10:03:13Z</time>
      </trkpt>
      <trkpt lat="43.54331" lon="3.00053">
        <ele>548.60015869141</ele>
        <time>2011-12-31T10:03:37Z</time>
      </trkpt>
      <trkpt lat="43.54277" lon="3.00023">
        <ele>539.7109375</ele>
        <time>2011-12-31T10:04:05Z</time>
      </trkpt>
      <trkpt lat="43.54161" lon="2.99932">
        <ele>530.15576171875</ele>
        <time>2011-12-31T10:04:42Z</time>
      </trkpt>
      <trkpt lat="43.54119" lon="2.9994">
        <ele>518.79187011719</ele>
        <time>2011-12-31T10:04:59Z</time>
      </trkpt>
      <trkpt lat="43.54085" lon="2.9991">
        <ele>519.32250976562</ele>
        <time>2011-12-31T10:06:09Z</time>
      </trkpt>
      <trkpt lat="43.54056" lon="2.99891">
        <ele>504.86419677734</ele>
        <time>2011-12-31T10:06:30Z</time>
      </trkpt>
      <trkpt lat="43.5404" lon="2.99821">
        <ele>496.5119934082</ele>
        <time>2011-12-31T10:07:42Z</time>
      </trkpt>
      <trkpt lat="43.54044" lon="2.99797">
        <ele>495.8776550293</ele>
        <time>2011-12-31T10:07:48Z</time>
      </trkpt>
      <trkpt lat="43.54038" lon="2.99775">
        <ele>491.34429931641</ele>
        <time>2011-12-31T10:07:55Z</time>
      </trkpt>
      <trkpt lat="43.54036" lon="2.99761">
        <ele>488.94366455078</ele>
        <time>2011-12-31T10:08:00Z</time>
      </trkpt>
      <trkpt lat="43.53996" lon="2.99736">
        <ele>470.07034301758</ele>
        <time>2011-12-31T10:08:33Z</time>
      </trkpt>
      <trkpt lat="43.53984" lon="2.99785">
        <ele>466.79287719727</ele>
        <time>2011-12-31T10:09:37Z</time>
      </trkpt>
      <trkpt lat="43.53973" lon="2.99805">
        <ele>460.77435302734</ele>
        <time>2011-12-31T10:09:54Z</time>
      </trkpt>
      <trkpt lat="43.53968" lon="2.99817">
        <ele>457.78289794922</ele>
        <time>2011-12-31T10:09:59Z</time>
      </trkpt>
      <trkpt lat="43.53963" lon="2.9985">
        <ele>454.22454833984</ele>
        <time>2011-12-31T10:10:06Z</time>
      </trkpt>
      <trkpt lat="43.53959" lon="2.99861">
        <ele>451.99499511719</ele>
        <time>2011-12-31T10:10:08Z</time>
      </trkpt>
      <trkpt lat="43.53951" lon="2.99881">
        <ele>447.47857666016</ele>
        <time>2011-12-31T10:10:12Z</time>
      </trkpt>
      <trkpt lat="43.53946" lon="2.99891">
        <ele>444.77203369141</ele>
        <time>2011-12-31T10:10:14Z</time>
      </trkpt>
      <trkpt lat="43.53925" lon="2.99938">
        <ele>432.06491088867</ele>
        <time>2011-12-31T10:10:31Z</time>
      </trkpt>
      <trkpt lat="43.53927" lon="2.99969">
        <ele>430.37847900391</ele>
        <time>2011-12-31T10:10:43Z</time>
      </trkpt>
      <trkpt lat="43.53954" lon="3">
        <ele>436.86050415039</ele>
        <time>2011-12-31T10:10:52Z</time>
      </trkpt>
      <trkpt lat="43.53971" lon="3.00015">
        <ele>436.04956054688</ele>
        <time>2011-12-31T10:10:58Z</time>
      </trkpt>
      <trkpt lat="43.53995" lon="3.00033">
        <ele>435.85842895508</ele>
        <time>2011-12-31T10:11:07Z</time>
      </trkpt>
      <trkpt lat="43.54055" lon="3.00126">
        <ele>422.97863769531</ele>
        <time>2011-12-31T10:11:50Z</time>
      </trkpt>
      <trkpt lat="43.54057" lon="3.00143">
        <ele>418.89965820312</ele>
        <time>2011-12-31T10:11:56Z</time>
      </trkpt>
      <trkpt lat="43.54052" lon="3.0016">
        <ele>411.57144165039</ele>
        <time>2011-12-31T10:12:02Z</time>
      </trkpt>
      <trkpt lat="43.54026" lon="3.00224">
        <ele>391.8366394043</ele>
        <time>2011-12-31T10:12:27Z</time>
      </trkpt>
      <trkpt lat="43.54021" lon="3.00206">
        <ele>390.10687255859</ele>
        <time>2011-12-31T10:12:59Z</time>
      </trkpt>
      <trkpt lat="43.54016" lon="3.00215">
        <ele>386.61840820312</ele>
        <time>2011-12-31T10:13:11Z</time>
      </trkpt>
      <trkpt lat="43.54011" lon="3.00225">
        <ele>382.72680664062</ele>
        <time>2011-12-31T10:13:15Z</time>
      </trkpt>
      <trkpt lat="43.53984" lon="3.00268">
        <ele>368.47064208984</ele>
        <time>2011-12-31T10:13:33Z</time>
      </trkpt>
      <trkpt lat="43.53978" lon="3.00278">
        <ele>367.107421875</ele>
        <time>2011-12-31T10:13:38Z</time>
      </trkpt>
      <trkpt lat="43.53891" lon="3.00341">
        <ele>339.86773681641</ele>
        <time>2011-12-31T10:14:50Z</time>
      </trkpt>
      <trkpt lat="43.53743" lon="3.00402">
        <ele>309.40551757812</ele>
        <time>2011-12-31T10:16:01Z</time>
      </trkpt>
      <trkpt lat="43.5372" lon="3.00423">
        <ele>308.39575195312</ele>
        <time>2011-12-31T10:16:07Z</time>
      </trkpt>
      <trkpt lat="43.53686" lon="3.00419">
        <ele>304.22210693359</ele>
        <time>2011-12-31T10:16:16Z</time>
      </trkpt>
      <trkpt lat="43.53661" lon="3.00418">
        <ele>299.86099243164</ele>
        <time>2011-12-31T10:16:41Z</time>
      </trkpt>
      <trkpt lat="43.53627" lon="3.00412">
        <ele>289.64654541016</ele>
        <time>2011-12-31T10:17:26Z</time>
      </trkpt>
      <trkpt lat="43.53601" lon="3.00407">
        <ele>281.41125488281</ele>
        <time>2011-12-31T10:17:48Z</time>
      </trkpt>
      <trkpt lat="43.53582" lon="3.00419">
        <ele>276.01943969727</ele>
        <time>2011-12-31T10:18:19Z</time>
      </trkpt>
      <trkpt lat="43.53574" lon="3.00404">
        <ele>273.00509643555</ele>
        <time>2011-12-31T10:18:32Z</time>
      </trkpt>
      <trkpt lat="43.53528" lon="3.00412">
        <ele>259.18469238281</ele>
        <time>2011-12-31T10:21:15Z</time>
      </trkpt>
      <trkpt lat="43.53529" lon="3.0043">
        <ele>258.19180297852</ele>
        <time>2011-12-31T10:21:22Z</time>
      </trkpt>
      <trkpt lat="43.53513" lon="3.00435">
        <ele>252.75282287598</ele>
        <time>2011-12-31T10:21:43Z</time>
      </trkpt>
      <trkpt lat="43.53505" lon="3.00431">
        <ele>250.80949401856</ele>
        <time>2011-12-31T10:21:46Z</time>
      </trkpt>
      <trkpt lat="43.53498" lon="3.00429">
        <ele>249.32388305664</ele>
        <time>2011-12-31T10:21:48Z</time>
      </trkpt>
      <trkpt lat="43.53485" lon="3.00424">
        <ele>246.89932250977</ele>
        <time>2011-12-31T10:21:52Z</time>
      </trkpt>
      <trkpt lat="43.53449" lon="3.00419">
        <ele>239.81042480469</ele>
        <time>2011-12-31T10:21:59Z</time>
      </trkpt>
      <trkpt lat="43.53395" lon="3.00418">
        <ele>228.64779663086</ele>
        <time>2011-12-31T10:22:11Z</time>
      </trkpt>
      <trkpt lat="43.53393" lon="3.00449">
        <ele>225.29696655273</ele>
        <time>2011-12-31T10:22:17Z</time>
      </trkpt>
      <trkpt lat="43.5335" lon="3.0042">
        <ele>219.98004150391</ele>
        <time>2011-12-31T10:22:27Z</time>
      </trkpt>
      <trkpt lat="43.53349" lon="3.00441">
        <ele>217.6591796875</ele>
        <time>2011-12-31T10:22:32Z</time>
      </trkpt>
      <trkpt lat="43.53334" lon="3.0043">
        <ele>215.93341064453</ele>
        <time>2011-12-31T10:22:37Z</time>
      </trkpt>
      <trkpt lat="43.53349" lon="3.00457">
        <ele>216.12796020508</ele>
        <time>2011-12-31T10:22:43Z</time>
      </trkpt>
      <trkpt lat="43.53362" lon="3.00468">
        <ele>217.65231323242</ele>
        <time>2011-12-31T10:22:45Z</time>
      </trkpt>
      <trkpt lat="43.53411" lon="3.0048">
        <ele>225.81423950195</ele>
        <time>2011-12-31T10:22:52Z</time>
      </trkpt>
      <trkpt lat="43.53424" lon="3.00512">
        <ele>229.17247009277</ele>
        <time>2011-12-31T10:23:03Z</time>
      </trkpt>
      <trkpt lat="43.533" lon="3.0053">
        <ele>195.359375</ele>
      </trkpt>
      <trkpt lat="43.53276" lon="3.00562">
        <ele>190.96484375</ele>
      </trkpt>
      <trkpt lat="43.53276" lon="3.0064">
        <ele>192.203125</ele>
      </trkpt>
      <trkpt lat="43.53298" lon="3.00711">
        <ele>203.21875</ele>
      </trkpt>
      <trkpt lat="43.53269" lon="3.00769">
        <ele>196.46875</ele>
      </trkpt>
      <trkpt lat="43.53253" lon="3.00858">
        <ele>204.54296875</ele>
      </trkpt>
      <trkpt lat="43.53254" lon="3.01187">
        <ele>220.40234375</ele>
      </trkpt>
      <trkpt lat="43.53276" lon="3.01395">
        <ele>229.2578125</ele>
      </trkpt>
      <trkpt lat="43.53293" lon="3.01426">
        <ele>235.30859375</ele>
      </trkpt>
      <trkpt lat="43.53285" lon="3.01469">
        <ele>232.04296875</ele>
      </trkpt>
      <trkpt lat="43.53306" lon="3.01561">
        <ele>239.8828125</ele>
      </trkpt>
      <trkpt lat="43.53318" lon="3.0161">
        <ele>240.4453125</ele>
      </trkpt>
      <trkpt lat="43.53325" lon="3.01746">
        <ele>240.82421875</ele>
      </trkpt>
      <trkpt lat="43.53348" lon="3.01779">
        <ele>250.80078125</ele>
      </trkpt>
      <trkpt lat="43.53404" lon="3.01816">
        <ele>267.46484375</ele>
      </trkpt>
      <trkpt lat="43.53395" lon="3.01838">
        <ele>263.08203125</ele>
      </trkpt>
      <trkpt lat="43.53353" lon="3.01863">
        <ele>251.1953125</ele>
      </trkpt>
      <trkpt lat="43.53345" lon="3.01898">
        <ele>251.30078125</ele>
      </trkpt>
      <trkpt lat="43.53351" lon="3.01974">
        <ele>258.87109375</ele>
      </trkpt>
      <trkpt lat="43.53338" lon="3.02237">
        <ele>274.59375</ele>
      </trkpt>
      <trkpt lat="43.53352" lon="3.02364">
        <ele>281.4375</ele>
      </trkpt>
      <trkpt lat="43.53402" lon="3.02407">
        <ele>294.51171875</ele>
      </trkpt>
      <trkpt lat="43.53406" lon="3.02424">
        <ele>290.625</ele>
      </trkpt>
      <trkpt lat="43.53386" lon="3.02436">
        <ele>287.4453125</ele>
      </trkpt>
      <trkpt lat="43.53373" lon="3.02475">
        <ele>291.0078125</ele>
      </trkpt>
      <trkpt lat="43.53353" lon="3.0249">
        <ele>295.015625</ele>
      </trkpt>
      <trkpt lat="43.53314" lon="3.02502">
        <ele>308.390625</ele>
      </trkpt>
      <trkpt lat="43.53303" lon="3.02488">
        <ele>311.58984375</ele>
      </trkpt>
      <trkpt lat="43.53297" lon="3.02428">
        <ele>305.34765625</ele>
      </trkpt>
      <trkpt lat="43.53258" lon="3.02385">
        <ele>302.296875</ele>
      </trkpt>
      <trkpt lat="43.53143" lon="3.02383">
        <ele>327.76171875</ele>
      </trkpt>
      <trkpt lat="43.53138" lon="3.02389">
        <ele>329.29296875</ele>
      </trkpt>
      <trkpt lat="43.53148" lon="3.02399">
        <ele>325.37890625</ele>
      </trkpt>
      <trkpt lat="43.53244" lon="3.02447">
        <ele>324.4375</ele>
      </trkpt>
      <trkpt lat="43.53247" lon="3.02488">
        <ele>334.44921875</ele>
      </trkpt>
      <trkpt lat="43.5325" lon="3.02537">
        <ele>340.79296875</ele>
      </trkpt>
      <trkpt lat="43.53247" lon="3.02547">
        <ele>343.0078125</ele>
      </trkpt>
      <trkpt lat="43.53236" lon="3.02518">
        <ele>343.4921875</ele>
      </trkpt>
      <trkpt lat="43.53231" lon="3.02483">
        <ele>337.29296875</ele>
      </trkpt>
      <trkpt lat="43.53205" lon="3.02467">
        <ele>337.4453125</ele>
      </trkpt>
      <trkpt lat="43.53014" lon="3.02442">
        <ele>370.421875</ele>
      </trkpt>
      <trkpt lat="43.53004" lon="3.02416">
        <ele>375.8828125</ele>
      </trkpt>
      <trkpt lat="43.5302" lon="3.02377">
        <ele>379.671875</ele>
      </trkpt>
      <trkpt lat="43.53051" lon="3.02327">
        <ele>379.3203125</ele>
      </trkpt>
      <trkpt lat="43.53074" lon="3.0227">
        <ele>374.546875</ele>
      </trkpt>
      <trkpt lat="43.53011" lon="3.02101">
        <ele>381.9609375</ele>
      </trkpt>
      <trkpt lat="43.52985" lon="3.02069">
        <ele>388.65234375</ele>
      </trkpt>
      <trkpt lat="43.53025" lon="3.02244">
        <ele>395.90234375</ele>
      </trkpt>
      <trkpt lat="43.53" lon="3.02296">
        <ele>405.10546875</ele>
      </trkpt>
      <trkpt lat="43.52914" lon="3.02369">
        <ele>423.7109375</ele>
      </trkpt>
      <trkpt lat="43.52869" lon="3.02426">
        <ele>430.21875</ele>
      </trkpt>
      <trkpt lat="43.5287" lon="3.0246">
        <ele>426.38671875</ele>
      </trkpt>
      <trkpt lat="43.52912" lon="3.02514">
        <ele>418.33984375</ele>
      </trkpt>
      <trkpt lat="43.53002" lon="3.02592">
        <ele>421.37890625</ele>
      </trkpt>
      <trkpt lat="43.53029" lon="3.02636">
        <ele>426.73828125</ele>
      </trkpt>
      <trkpt lat="43.53032" lon="3.02694">
        <ele>435.69140625</ele>
      </trkpt>
      <trkpt lat="43.53005" lon="3.02652">
        <ele>436.328125</ele>
      </trkpt>
      <trkpt lat="43.5296" lon="3.0261">
        <ele>436.23046875</ele>
      </trkpt>
      <trkpt lat="43.52732" lon="3.02494">
        <ele>467.55859375</ele>
      </trkpt>
      <trkpt lat="43.52754" lon="3.02556">
        <ele>474.85546875</ele>
      </trkpt>
      <trkpt lat="43.5279" lon="3.02582">
        <ele>473.68359375</ele>
      </trkpt>
      <trkpt lat="43.5263" lon="3.02543">
        <ele>492.83203125</ele>
      </trkpt>
      <trkpt lat="43.52588" lon="3.02468">
        <ele>495.57421875</ele>
      </trkpt>
      <trkpt lat="43.52514" lon="3.0244">
        <ele>491.29089355469</ele>
        <time>2012-04-28T09:40:22Z</time>
      </trkpt>
      <trkpt lat="43.52516" lon="3.02444">
        <ele>491.29315185547</ele>
        <time>2012-04-28T09:40:24Z</time>
      </trkpt>
      <trkpt lat="43.52529" lon="3.02455">
        <ele>491.80014038086</ele>
        <time>2012-04-28T09:40:34Z</time>
      </trkpt>
      <trkpt lat="43.52528" lon="3.02432">
        <ele>492.30712890625</ele>
        <time>2012-04-28T09:40:46Z</time>
      </trkpt>
      <trkpt lat="43.52529" lon="3.0243">
        <ele>492.39752197266</ele>
        <time>2012-04-28T09:40:47Z</time>
      </trkpt>
      <trkpt lat="43.5256" lon="3.02369">
        <ele>499.25854492188</ele>
        <time>2012-04-28T09:41:22Z</time>
      </trkpt>
      <trkpt lat="43.52567" lon="3.0235">
        <ele>502.30041503906</ele>
        <time>2012-04-28T09:41:33Z</time>
      </trkpt>
      <trkpt lat="43.52574" lon="3.02324">
        <ele>506.14514160156</ele>
        <time>2012-04-28T09:41:49Z</time>
      </trkpt>
      <trkpt lat="43.5258" lon="3.02305">
        <ele>509.1535949707</ele>
        <time>2012-04-28T09:42:01Z</time>
      </trkpt>
      <trkpt lat="43.52588" lon="3.02294">
        <ele>510.18151855469</ele>
        <time>2012-04-28T09:42:10Z</time>
      </trkpt>
      <trkpt lat="43.52589" lon="3.02291">
        <ele>510.35043334961</ele>
        <time>2012-04-28T09:42:12Z</time>
      </trkpt>
      <trkpt lat="43.52584" lon="3.02182">
        <ele>520.63153076172</ele>
        <time>2012-04-28T09:43:04Z</time>
      </trkpt>
      <trkpt lat="43.52584" lon="3.02155">
        <ele>520.59375</ele>
        <time>2012-04-28T09:43:12Z</time>
      </trkpt>
      <trkpt lat="43.52537" lon="3.02076">
        <ele>514.72277832031</ele>
        <time>2012-04-28T09:43:42Z</time>
      </trkpt>
      <trkpt lat="43.52411" lon="3.01955">
        <ele>522.96832275391</ele>
        <time>2012-04-28T09:44:55Z</time>
      </trkpt>
      <trkpt lat="43.52375" lon="3.01833">
        <ele>531.49176025391</ele>
        <time>2012-04-28T09:45:48Z</time>
      </trkpt>
      <trkpt lat="43.52364" lon="3.01814">
        <ele>532.58129882812</ele>
        <time>2012-04-28T09:46:02Z</time>
      </trkpt>
      <trkpt lat="43.52332" lon="3.0177">
        <ele>535.04595947266</ele>
        <time>2012-04-28T09:52:23Z</time>
      </trkpt>
      <trkpt lat="43.52283" lon="3.01723">
        <ele>526.32250976562</ele>
        <time>2012-04-28T09:52:38Z</time>
      </trkpt>
      <trkpt lat="43.52251" lon="3.01717">
        <ele>522.79119873047</ele>
        <time>2012-04-28T09:52:56Z</time>
      </trkpt>
      <trkpt lat="43.52194" lon="3.01721">
        <ele>510.7741394043</ele>
        <time>2012-04-28T09:53:59Z</time>
      </trkpt>
      <trkpt lat="43.5218" lon="3.01713">
        <ele>507.30807495117</ele>
        <time>2012-04-28T09:54:03Z</time>
      </trkpt>
      <trkpt lat="43.52172" lon="3.01705">
        <ele>505.54623413086</ele>
        <time>2012-04-28T09:54:05Z</time>
      </trkpt>
      <trkpt lat="43.52142" lon="3.01694">
        <ele>502.65292358398</ele>
        <time>2012-04-28T09:54:16Z</time>
      </trkpt>
      <trkpt lat="43.52131" lon="3.01671">
        <ele>503.67575073242</ele>
        <time>2012-04-28T09:54:23Z</time>
      </trkpt>
      <trkpt lat="43.52091" lon="3.01713">
        <ele>495.97937011719</ele>
        <time>2012-04-28T09:55:15Z</time>
      </trkpt>
      <trkpt lat="43.51927" lon="3.01682">
        <ele>493.76745605469</ele>
        <time>2012-04-28T09:57:47Z</time>
      </trkpt>
      <trkpt lat="43.51859" lon="3.01672">
        <ele>488.73590087891</ele>
        <time>2012-04-28T09:58:05Z</time>
      </trkpt>
      <trkpt lat="43.51847" lon="3.01667">
        <ele>487.78900146484</ele>
        <time>2012-04-28T09:58:08Z</time>
      </trkpt>
      <trkpt lat="43.51806" lon="3.01752">
        <ele>472.08618164062</ele>
        <time>2012-04-28T09:58:36Z</time>
      </trkpt>
      <trkpt lat="43.51797" lon="3.01794">
        <ele>463.40203857422</ele>
        <time>2012-04-28T09:58:50Z</time>
      </trkpt>
      <trkpt lat="43.51753" lon="3.01862">
        <ele>452.55801391602</ele>
        <time>2012-04-28T09:59:14Z</time>
      </trkpt>
      <trkpt lat="43.51746" lon="3.01863">
        <ele>451.24935913086</ele>
        <time>2012-04-28T09:59:16Z</time>
      </trkpt>
      <trkpt lat="43.51702" lon="3.017">
        <ele>439.48532104492</ele>
        <time>2012-04-28T10:00:35Z</time>
      </trkpt>
      <trkpt lat="43.51713" lon="3.01515">
        <ele>435.47882080078</ele>
        <time>2012-04-28T10:01:55Z</time>
      </trkpt>
      <trkpt lat="43.51622" lon="3.01437">
        <ele>412.03289794922</ele>
        <time>2012-04-28T10:03:03Z</time>
      </trkpt>
      <trkpt lat="43.51535" lon="3.01417">
        <ele>385.65710449219</ele>
        <time>2012-04-28T10:04:57Z</time>
      </trkpt>
      <trkpt lat="43.51529" lon="3.01415">
        <ele>383.60842895508</ele>
        <time>2012-04-28T10:04:59Z</time>
      </trkpt>
      <trkpt lat="43.51447" lon="3.01422">
        <ele>373.67828369141</ele>
        <time>2012-04-28T10:06:31Z</time>
      </trkpt>
      <trkpt lat="43.51371" lon="3.01476">
        <ele>379.61196899414</ele>
        <time>2012-04-28T10:07:00Z</time>
      </trkpt>
      <trkpt lat="43.51357" lon="3.01505">
        <ele>384.64700317383</ele>
        <time>2012-04-28T10:07:15Z</time>
      </trkpt>
      <trkpt lat="43.5137" lon="3.01535">
        <ele>378.55099487305</ele>
        <time>2012-04-28T10:08:16Z</time>
      </trkpt>
      <trkpt lat="43.51348" lon="3.01578">
        <ele>377.11602783203</ele>
        <time>2012-04-28T10:08:29Z</time>
      </trkpt>
      <trkpt lat="43.51346" lon="3.01591">
        <ele>374.95745849609</ele>
        <time>2012-04-28T10:08:32Z</time>
      </trkpt>
      <trkpt lat="43.51337" lon="3.01606">
        <ele>372.99795532227</ele>
        <time>2012-04-28T10:08:36Z</time>
      </trkpt>
      <trkpt lat="43.51279" lon="3.01692">
        <ele>369.96240234375</ele>
        <time>2012-04-28T10:09:44Z</time>
      </trkpt>
      <trkpt lat="43.51224" lon="3.01728">
        <ele>376.30822753906</ele>
        <time>2012-04-28T10:10:35Z</time>
      </trkpt>
      <trkpt lat="43.51208" lon="3.01777">
        <ele>367.03897094727</ele>
        <time>2012-04-28T10:10:50Z</time>
      </trkpt>
      <trkpt lat="43.51194" lon="3.01813">
        <ele>361.90933227539</ele>
        <time>2012-04-28T10:10:59Z</time>
      </trkpt>
      <trkpt lat="43.51188" lon="3.01821">
        <ele>362.41354370117</ele>
        <time>2012-04-28T10:11:02Z</time>
      </trkpt>
      <trkpt lat="43.51176" lon="3.01833">
        <ele>364.60046386719</ele>
        <time>2012-04-28T10:11:06Z</time>
      </trkpt>
      <trkpt lat="43.51168" lon="3.01848">
        <ele>362.78643798828</ele>
        <time>2012-04-28T10:12:00Z</time>
      </trkpt>
      <trkpt lat="43.51154" lon="3.01882">
        <ele>354.515625</ele>
        <time>2012-04-28T10:12:19Z</time>
      </trkpt>
      <trkpt lat="43.51096" lon="3.01908">
        <ele>364.35717773438</ele>
        <time>2012-04-28T10:13:17Z</time>
      </trkpt>
      <trkpt lat="43.51093" lon="3.02037">
        <ele>348.77743530273</ele>
        <time>2012-04-28T10:16:45Z</time>
      </trkpt>
      <trkpt lat="43.511" lon="3.02103">
        <ele>338.15783691406</ele>
        <time>2012-04-28T10:17:07Z</time>
      </trkpt>
      <trkpt lat="43.51056" lon="3.02124">
        <ele>349.78994750977</ele>
        <time>2012-04-28T10:19:40Z</time>
      </trkpt>
      <trkpt lat="43.51053" lon="3.02131">
        <ele>349.10620117188</ele>
        <time>2012-04-28T10:19:43Z</time>
      </trkpt>
      <trkpt lat="43.51035" lon="3.02166">
        <ele>346.18392944336</ele>
        <time>2012-04-28T10:20:34Z</time>
      </trkpt>
      <trkpt lat="43.51025" lon="3.02176">
        <ele>346.26220703125</ele>
        <time>2012-04-28T10:20:42Z</time>
      </trkpt>
      <trkpt lat="43.50991" lon="3.02194">
        <ele>349.18060302734</ele>
        <time>2012-04-28T10:21:48Z</time>
      </trkpt>
      <trkpt lat="43.50935" lon="3.02255">
        <ele>349.12289428711</ele>
        <time>2012-04-28T10:22:21Z</time>
      </trkpt>
      <trkpt lat="43.50918" lon="3.02277">
        <ele>343.83013916016</ele>
        <time>2012-04-28T10:22:47Z</time>
      </trkpt>
      <trkpt lat="43.50887" lon="3.02285">
        <ele>340.10263061523</ele>
        <time>2012-04-28T10:23:28Z</time>
      </trkpt>
      <trkpt lat="43.50872" lon="3.02302">
        <ele>332.12899780273</ele>
        <time>2012-04-28T10:23:36Z</time>
      </trkpt>
      <trkpt lat="43.50857" lon="3.02301">
        <ele>332.50228881836</ele>
        <time>2012-04-28T10:24:05Z</time>
      </trkpt>
      <trkpt lat="43.5085" lon="3.02299">
        <ele>333.59466552734</ele>
        <time>2012-04-28T10:24:07Z</time>
      </trkpt>
      <trkpt lat="43.50844" lon="3.02292">
        <ele>336.75213623047</ele>
        <time>2012-04-28T10:24:09Z</time>
      </trkpt>
      <trkpt lat="43.50833" lon="3.02284">
        <ele>340.24697875977</ele>
        <time>2012-04-28T10:24:12Z</time>
      </trkpt>
      <trkpt lat="43.5079" lon="3.0227">
        <ele>342.96044921875</ele>
        <time>2012-04-28T10:24:21Z</time>
      </trkpt>
      <trkpt lat="43.50755" lon="3.02274">
        <ele>338.89849853516</ele>
        <time>2012-04-28T10:24:28Z</time>
      </trkpt>
      <trkpt lat="43.50712" lon="3.02311">
        <ele>328.87930297852</ele>
        <time>2012-04-28T10:24:39Z</time>
      </trkpt>
      <trkpt lat="43.50702" lon="3.02332">
        <ele>325.87121582031</ele>
        <time>2012-04-28T10:24:44Z</time>
      </trkpt>
      <trkpt lat="43.50682" lon="3.02362">
        <ele>319.09994506836</ele>
        <time>2012-04-28T10:24:50Z</time>
      </trkpt>
      <trkpt lat="43.50664" lon="3.02388">
        <ele>313.46151733398</ele>
        <time>2012-04-28T10:24:59Z</time>
      </trkpt>
      <trkpt lat="43.50605" lon="3.0241">
        <ele>299.54498291016</ele>
        <time>2012-04-28T10:26:49Z</time>
      </trkpt>
      <trkpt lat="43.50581" lon="3.02469">
        <ele>291.43734741211</ele>
        <time>2012-04-28T10:27:44Z</time>
      </trkpt>
      <trkpt lat="43.50544" lon="3.0248">
        <ele>278.50024414062</ele>
        <time>2012-04-28T10:28:19Z</time>
      </trkpt>
      <trkpt lat="43.50536" lon="3.02503">
        <ele>275.87496948242</ele>
        <time>2012-04-28T10:28:27Z</time>
      </trkpt>
      <trkpt lat="43.50517" lon="3.02339">
        <ele>275.34432983398</ele>
        <time>2012-04-28T10:29:10Z</time>
      </trkpt>
      <trkpt lat="43.50475" lon="3.02249">
        <ele>260.92666625977</ele>
        <time>2012-04-28T10:29:29Z</time>
      </trkpt>
      <trkpt lat="43.50472" lon="3.02209">
        <ele>253.54747009277</ele>
        <time>2012-04-28T10:29:37Z</time>
      </trkpt>
      <trkpt lat="43.50469" lon="3.022">
        <ele>250.96655273438</ele>
        <time>2012-04-28T10:29:40Z</time>
      </trkpt>
      <trkpt lat="43.50468" lon="3.02194">
        <ele>249.52433776856</ele>
        <time>2012-04-28T10:29:42Z</time>
      </trkpt>
      <trkpt lat="43.50436" lon="3.02217">
        <ele>241.2254486084</ele>
        <time>2012-04-28T10:29:57Z</time>
      </trkpt>
      <trkpt lat="43.50433" lon="3.02248">
        <ele>244.09294128418</ele>
        <time>2012-04-28T10:30:15Z</time>
      </trkpt>
      <trkpt lat="43.50432" lon="3.02379">
        <ele>232.97111511231</ele>
        <time>2012-04-28T10:30:56Z</time>
      </trkpt>
      <trkpt lat="43.5038" lon="3.02314">
        <ele>216.57727050781</ele>
        <time>2012-04-28T10:32:41Z</time>
      </trkpt>
      <trkpt lat="43.50348" lon="3.02242">
        <ele>207.87702941894</ele>
        <time>2012-04-28T10:32:57Z</time>
      </trkpt>
      <trkpt lat="43.50331" lon="3.02206">
        <ele>200.56864929199</ele>
        <time>2012-04-28T10:33:06Z</time>
      </trkpt>
      <trkpt lat="43.50324" lon="3.02171">
        <ele>196.77890014648</ele>
        <time>2012-04-28T10:33:12Z</time>
      </trkpt>
      <trkpt lat="43.50322" lon="3.02146">
        <ele>191.78565979004</ele>
        <time>2012-04-28T10:33:18Z</time>
      </trkpt>
      <trkpt lat="43.50308" lon="3.02181">
        <ele>189.03326416016</ele>
        <time>2012-04-28T10:33:30Z</time>
      </trkpt>
      <trkpt lat="43.50296" lon="3.02169">
        <ele>183.69459533691</ele>
        <time>2012-04-28T10:33:41Z</time>
      </trkpt>
      <trkpt lat="43.50301" lon="3.02305">
        <ele>180.52066040039</ele>
        <time>2012-04-28T10:34:09Z</time>
      </trkpt>
      <trkpt lat="43.50299" lon="3.02341">
        <ele>175.73297119141</ele>
        <time>2012-04-28T10:34:17Z</time>
      </trkpt>
      <trkpt lat="43.50287" lon="3.02336">
        <ele>170.29653930664</ele>
        <time>2012-04-28T10:34:30Z</time>
      </trkpt>
      <trkpt lat="43.50288" lon="3.02346">
        <ele>169.73028564453</ele>
        <time>2012-04-28T10:34:32Z</time>
      </trkpt>
      <trkpt lat="43.50292" lon="3.02393">
        <ele>165.79928588867</ele>
        <time>2012-04-28T10:34:44Z</time>
      </trkpt>
      <trkpt lat="43.50281" lon="3.0238">
        <ele>161.93566894531</ele>
        <time>2012-04-28T10:35:19Z</time>
      </trkpt>
      <trkpt lat="43.50283" lon="3.02401">
        <ele>160.23695373535</ele>
        <time>2012-04-28T10:35:50Z</time>
      </trkpt>
      <trkpt lat="43.50277" lon="3.02396">
        <ele>157.64266967773</ele>
        <time>2012-04-28T10:36:10Z</time>
      </trkpt>
      <trkpt lat="43.50273" lon="3.02392">
        <ele>156.2864074707</ele>
        <time>2012-04-28T10:36:16Z</time>
      </trkpt>
      <trkpt lat="43.50284" lon="3.02419">
        <ele>158.68013000488</ele>
        <time>2012-04-28T10:36:26Z</time>
      </trkpt>
      <trkpt lat="43.50255" lon="3.02408">
        <ele>145.62619018555</ele>
        <time>2012-04-28T10:36:36Z</time>
      </trkpt>
      <trkpt lat="43.50233" lon="3.02338">
        <ele>144.63713073731</ele>
        <time>2012-04-28T10:36:50Z</time>
      </trkpt>
      <trkpt lat="43.50222" lon="3.02283">
        <ele>144.79698181152</ele>
        <time>2012-04-28T10:37:00Z</time>
      </trkpt>
      <trkpt lat="43.5021" lon="3.02255">
        <ele>142.38208007812</ele>
        <time>2012-04-28T10:37:04Z</time>
      </trkpt>
      <trkpt lat="43.50204" lon="3.02236">
        <ele>140.94300842285</ele>
        <time>2012-04-28T10:37:06Z</time>
      </trkpt>
      <trkpt lat="43.50183" lon="3.0217">
        <ele>136.15119934082</ele>
        <time>2012-04-28T10:37:14Z</time>
      </trkpt>
      <trkpt lat="43.50167" lon="3.02167">
        <ele>129.97160339356</ele>
        <time>2012-04-28T10:37:17Z</time>
      </trkpt>
      <trkpt lat="43.50149" lon="3.0217">
        <ele>126.81085205078</ele>
        <time>2012-04-28T10:37:19Z</time>
      </trkpt>
      <trkpt lat="43.50129" lon="3.02173">
        <ele>123.23461151123</ele>
        <time>2012-04-28T10:37:21Z</time>
      </trkpt>
      <trkpt lat="43.50043" lon="3.02194">
        <ele>108.12752532959</ele>
        <time>2012-04-28T10:37:36Z</time>
      </trkpt>
      <trkpt lat="43.50066" lon="3.02265">
        <ele>105.79832458496</ele>
        <time>2012-04-28T10:37:50Z</time>
      </trkpt>
      <trkpt lat="43.5006" lon="3.02283">
        <ele>104.40901184082</ele>
        <time>2012-04-28T10:37:54Z</time>
      </trkpt>
      <trkpt lat="43.49959" lon="3.02307">
        <ele>93.146469116211</ele>
        <time>2012-04-28T10:38:08Z</time>
      </trkpt>
      <trkpt lat="43.49925" lon="3.02053">
        <ele>91.220970153809</ele>
        <time>2012-04-28T10:38:44Z</time>
      </trkpt>
    </trkseg>
  </trk>
</gpx>